Time;durP1;ratioP1;P1;durP2;ratioP2;P2;SDS_P1;SDS_P2;PMS_P1;PMS_P2;Temp;Humidity;BMP_temperature;BMP_pressure;BME280_temperature;BME280_humidity;BME280_pressure;Samples;Min_cycle;Max_cycle;Signal;HPM_P1;HPM_P2
2021/12/14 00:01:35;;;;;;;26.10;18.52;;;8.00;99.90;;;;;;5043657;28;20518;-48
2021/12/14 00:04:10;;;;;;;25.00;19.83;;;8.00;99.90;;;;;;5064141;28;20059;-47
2021/12/14 00:06:38;;;;;;;24.73;19.30;;;8.00;99.90;;;;;;5043079;28;20164;-47
2021/12/14 00:09:05;;;;;;;27.48;19.67;;;8.00;99.90;;;;;;5056236;28;20032;-49
2021/12/14 00:15:01;;;;;;;23.08;18.67;;;8.00;99.90;;;;;;5065106;28;20064;-47
2021/12/14 00:17:01;;;;;;;24.25;19.77;;;8.00;99.90;;;;;;5057631;28;20171;-48
2021/12/14 00:19:28;;;;;;;24.35;18.55;;;7.90;99.90;;;;;;5063604;28;20056;-48
2021/12/14 00:22:03;;;;;;;24.95;19.35;;;7.90;99.90;;;;;;5046565;28;20102;-46
2021/12/14 00:24:29;;;;;;;22.23;18.23;;;7.90;99.90;;;;;;5062713;28;20419;-47
2021/12/14 00:27:03;;;;;;;23.83;19.67;;;7.90;99.90;;;;;;5064170;28;20131;-46
2021/12/14 00:29:36;;;;;;;28.90;19.10;;;7.90;99.90;;;;;;5046836;28;20044;-50
2021/12/14 00:32:07;;;;;;;23.17;18.33;;;7.90;99.90;;;;;;5045315;28;20168;-53
2021/12/14 00:34:37;;;;;;;25.25;19.48;;;7.90;99.90;;;;;;5064450;28;20298;-47
2021/12/14 00:37:23;;;;;;;26.13;18.92;;;7.90;99.90;;;;;;5043965;28;20052;-47
2021/12/14 00:39:52;;;;;;;24.83;19.40;;;7.90;99.90;;;;;;5055721;28;20522;-46
2021/12/14 00:42:19;;;;;;;25.88;18.67;;;7.90;99.90;;;;;;5062411;28;20114;-47
2021/12/14 00:44:49;;;;;;;23.80;19.70;;;7.90;99.90;;;;;;5062266;28;20483;-47
2021/12/14 00:47:16;;;;;;;24.35;20.02;;;7.90;99.90;;;;;;5062360;28;20406;-47
2021/12/14 00:49:42;;;;;;;24.35;19.40;;;7.90;99.90;;;;;;5060781;28;20052;-47
2021/12/14 00:52:09;;;;;;;28.17;21.73;;;7.90;99.90;;;;;;5055912;28;20047;-47
2021/12/14 00:54:36;;;;;;;26.77;20.33;;;7.90;99.90;;;;;;5062160;28;20139;-48
2021/12/14 00:57:04;;;;;;;26.50;20.60;;;7.90;99.90;;;;;;5063138;28;20044;-47
2021/12/14 00:59:31;;;;;;;25.90;19.83;;;7.90;99.90;;;;;;5041706;28;20089;-47
2021/12/14 01:02:19;;;;;;;24.95;19.05;;;7.90;99.90;;;;;;5056056;28;20102;-48
2021/12/14 01:04:54;;;;;;;24.17;20.27;;;7.90;99.90;;;;;;5058839;28;20057;-46
2021/12/14 01:07:23;;;;;;;27.52;20.90;;;7.90;99.90;;;;;;5062634;28;20125;-47
2021/12/14 01:09:52;;;;;;;23.60;20.38;;;7.90;99.90;;;;;;5044453;28;20056;-47
2021/12/14 01:12:36;;;;;;;26.45;19.73;;;7.90;99.90;;;;;;5044886;28;20577;-48
2021/12/14 01:15:28;;;;;;;26.15;20.45;;;7.90;99.90;;;;;;5029427;28;20052;-48
2021/12/14 01:24:08;;;;;;;26.02;20.45;;;7.80;99.90;;;;;;4997744;28;20065;-48
2021/12/14 01:26:38;;;;;;;27.25;20.90;;;7.90;99.90;;;;;;4982872;28;20085;-48
2021/12/14 01:29:08;;;;;;;27.65;22.20;;;7.80;99.90;;;;;;4982659;28;20050;-47
2021/12/14 01:31:40;;;;;;;26.73;21.02;;;7.80;99.90;;;;;;4983826;28;20275;-47
2021/12/14 01:34:15;;;;;;;27.10;21.15;;;7.80;99.90;;;;;;4999742;28;20050;-47
2021/12/14 01:36:46;;;;;;;28.00;21.20;;;7.80;99.90;;;;;;4983049;28;20730;-49
2021/12/14 01:42:07;;;;;;;27.67;23.13;;;7.90;99.90;;;;;;5002450;28;20054;-49
2021/12/14 01:44:40;;;;;;;27.10;22.58;;;7.90;99.90;;;;;;4983119;28;20058;-49
2021/12/14 01:47:10;;;;;;;26.13;21.67;;;7.90;99.90;;;;;;4968225;28;20412;-50
2021/12/14 01:49:37;;;;;;;28.85;22.05;;;7.90;99.90;;;;;;4982241;28;20072;-49
2021/12/14 01:52:08;;;;;;;28.25;22.92;;;7.90;99.90;;;;;;4982729;28;20056;-48
2021/12/14 01:54:39;;;;;;;27.33;22.70;;;7.90;99.90;;;;;;4982341;28;20405;-47
2021/12/14 01:57:09;;;;;;;26.35;22.00;;;7.90;99.90;;;;;;5009289;28;20151;-46
2021/12/14 01:59:38;;;;;;;28.45;22.75;;;7.90;99.90;;;;;;5059491;28;20056;-46
2021/12/14 02:02:28;;;;;;;27.13;21.77;;;7.90;99.90;;;;;;5063508;28;20068;-49
2021/12/14 02:04:54;;;;;;;28.58;23.13;;;7.90;99.90;;;;;;5064429;28;20067;-46
2021/12/14 02:07:21;;;;;;;30.98;23.58;;;7.90;99.90;;;;;;5046943;28;20044;-48
2021/12/14 02:09:59;;;;;;;26.58;22.70;;;7.90;99.90;;;;;;5047413;28;20483;-48
2021/12/14 02:12:27;;;;;;;27.10;22.77;;;7.90;99.90;;;;;;5064760;28;20052;-47
2021/12/14 02:15:03;;;;;;;32.05;24.42;;;7.90;99.90;;;;;;5018482;28;20053;-47
2021/12/14 02:17:29;;;;;;;29.80;24.52;;;7.90;99.90;;;;;;5062149;28;20083;-48
2021/12/14 02:20:02;;;;;;;28.63;24.52;;;7.90;99.90;;;;;;5064005;28;20059;-47
2021/12/14 02:22:28;;;;;;;26.95;23.23;;;7.90;99.90;;;;;;5065192;28;20095;-47
2021/12/14 02:24:54;;;;;;;31.70;26.13;;;7.90;99.90;;;;;;5065704;28;20135;-47
2021/12/14 02:27:21;;;;;;;32.95;26.42;;;7.90;99.90;;;;;;5064380;28;20048;-47
2021/12/14 02:29:49;;;;;;;30.75;25.48;;;7.90;99.90;;;;;;5064435;28;20060;-47
2021/12/14 02:32:22;;;;;;;31.17;25.90;;;7.90;99.90;;;;;;5064571;28;20048;-47
2021/12/14 02:34:51;;;;;;;35.47;26.27;;;7.90;99.90;;;;;;5065462;28;20040;-47
2021/12/14 02:37:21;;;;;;;37.38;27.65;;;7.90;99.90;;;;;;5064251;28;20048;-47
2021/12/14 02:40:00;;;;;;;32.28;26.75;;;7.90;99.90;;;;;;5039625;28;20135;-48
2021/12/14 02:42:27;;;;;;;34.53;28.30;;;7.90;99.90;;;;;;5065115;28;20056;-48
2021/12/14 02:44:54;;;;;;;36.05;26.73;;;7.90;99.90;;;;;;5064985;28;20451;-50
2021/12/14 02:47:22;;;;;;;33.92;27.25;;;7.90;99.90;;;;;;5066004;28;20464;-47
2021/12/14 02:49:51;;;;;;;37.97;28.98;;;7.90;99.90;;;;;;5046136;28;20054;-47
2021/12/14 02:52:28;;;;;;;37.42;30.25;;;7.80;99.90;;;;;;5064830;28;20048;-47
2021/12/14 02:55:03;;;;;;;36.95;30.25;;;7.90;99.90;;;;;;5065681;28;20052;-47
2021/12/14 02:57:33;;;;;;;35.90;28.38;;;7.80;99.90;;;;;;5032300;28;20053;-47
2021/12/14 03:00:05;;;;;;;34.42;28.23;;;7.80;99.90;;;;;;5065062;28;20422;-48
2021/12/14 03:02:33;;;;;;;39.75;29.23;;;7.80;99.90;;;;;;5063720;28;20456;-47
2021/12/14 03:05:07;;;;;;;38.17;30.60;;;7.80;99.90;;;;;;5064790;28;20048;-48
2021/12/14 03:07:37;;;;;;;;;;;7.80;99.90;;;;;;5064648;28;20562;-48
2021/12/14 03:12:53;;;;;;;39.88;30.80;;;7.80;99.90;;;;;;5063173;28;20520;-47
2021/12/14 03:15:24;;;;;;;36.95;29.42;;;7.80;99.90;;;;;;5063616;28;20049;-47
2021/12/14 03:17:53;;;;;;;38.15;30.33;;;7.80;99.90;;;;;;5061685;28;20049;-48
2021/12/14 03:20:21;;;;;;;37.75;30.77;;;7.80;99.90;;;;;;5045904;28;20041;-46
2021/12/14 03:23:00;;;;;;;40.38;32.22;;;7.80;99.90;;;;;;5063875;28;20055;-46
2021/12/14 03:25:28;;;;;;;42.63;31.63;;;7.80;99.90;;;;;;5063360;28;20449;-48
2021/12/14 03:27:55;;;;;;;36.10;27.88;;;7.80;99.90;;;;;;5063875;28;20526;-47
2021/12/14 03:30:26;;;;;;;39.00;32.53;;;7.80;99.90;;;;;;5062802;28;20071;-47
2021/12/14 03:32:57;;;;;;;39.50;30.90;;;7.80;99.90;;;;;;5063183;28;20052;-51
2021/12/14 03:35:42;;;;;;;42.42;32.53;;;7.80;99.90;;;;;;5062949;28;20139;-49
2021/12/14 03:38:37;;;;;;;37.47;29.63;;;7.80;99.90;;;;;;5063535;28;20131;-48
2021/12/14 03:41:20;;;;;;;40.63;31.17;;;7.80;99.90;;;;;;5063046;28;20048;-48
2021/12/14 03:44:01;;;;;;;38.78;31.13;;;7.80;99.90;;;;;;5041922;28;20641;-46
2021/12/14 03:46:33;;;;;;;39.45;31.05;;;7.80;99.90;;;;;;5045330;28;20048;-48
2021/12/14 03:49:00;;;;;;;42.53;32.38;;;7.80;99.90;;;;;;5062634;28;20470;-46
2021/12/14 03:51:27;;;;;;;39.63;29.80;;;7.80;99.90;;;;;;5062705;28;20048;-47
2021/12/14 03:53:57;;;;;;;41.38;32.17;;;7.80;99.90;;;;;;5063552;28;20127;-50
2021/12/14 03:56:25;;;;;;;39.60;31.30;;;7.70;99.90;;;;;;5063113;28;20048;-47
2021/12/14 03:58:53;;;;;;;41.00;31.08;;;7.80;99.90;;;;;;5063956;28;20517;-46
2021/12/14 04:01:22;;;;;;;41.13;30.33;;;7.70;99.90;;;;;;5044947;28;20088;-46
2021/12/14 04:03:51;;;;;;;38.38;30.42;;;7.70;99.90;;;;;;5044839;28;20056;-47
2021/12/14 04:06:17;;;;;;;38.70;29.52;;;7.70;99.90;;;;;;5052325;28;20058;-47
2021/12/14 04:08:44;;;;;;;37.92;30.90;;;7.70;99.90;;;;;;5064716;28;20052;-50
2021/12/14 04:11:12;;;;;;;43.67;32.10;;;7.70;99.90;;;;;;5045757;28;20056;-50
2021/12/14 04:13:50;;;;;;;37.65;30.52;;;7.70;99.90;;;;;;5045307;28;20041;-50
2021/12/14 04:16:21;;;;;;;38.55;29.88;;;7.60;99.90;;;;;;5061602;28;20453;-51
2021/12/14 04:18:55;;;;;;;40.33;30.77;;;7.70;99.90;;;;;;5044245;28;20444;-48
2021/12/14 04:21:21;;;;;;;38.38;31.13;;;7.70;99.90;;;;;;5043690;28;20102;-50
2021/12/14 04:23:50;;;;;;;39.03;31.48;;;7.70;99.90;;;;;;5061272;28;20048;-48
2021/12/14 04:26:18;;;;;;;41.95;31.00;;;7.70;99.90;;;;;;5040356;28;20060;-48
2021/12/14 04:28:52;;;;;;;40.10;30.15;;;7.70;99.90;;;;;;5043238;28;20127;-48
2021/12/14 04:31:19;;;;;;;42.15;31.17;;;7.70;99.90;;;;;;5062490;28;20167;-46
2021/12/14 04:33:46;;;;;;;38.63;30.30;;;7.70;99.90;;;;;;5044658;28;20163;-47
2021/12/14 04:36:18;;;;;;;38.67;31.73;;;7.70;99.90;;;;;;5061293;28;20052;-46
2021/12/14 04:38:56;;;;;;;38.83;30.38;;;7.70;99.90;;;;;;5061697;28;20048;-49
2021/12/14 04:52:34;;;;;;;41.60;32.50;;;7.70;99.90;;;;;;5062205;28;20483;-47
2021/12/14 04:55:09;;;;;;;44.30;32.30;;;7.70;99.90;;;;;;5056403;28;20044;-48
2021/12/14 04:57:43;;;;;;;44.50;34.50;;;7.60;99.90;;;;;;5062602;28;20105;-48
2021/12/14 05:00:27;;;;;;;;;;;7.70;99.90;;;;;;5045158;28;20403;-47
2021/12/14 05:02:56;;;;;;;42.75;32.65;;;7.60;99.90;;;;;;5040192;28;19924;-48
2021/12/14 05:05:39;;;;;;;42.95;32.83;;;7.60;99.90;;;;;;5041666;28;20091;-50
2021/12/14 05:10:41;;;;;;;42.83;32.97;;;7.60;99.90;;;;;;5043146;28;20053;-48
2021/12/14 05:13:07;;;;;;;46.35;34.30;;;7.70;99.90;;;;;;5042642;28;20055;-47
2021/12/14 05:15:37;;;;;;;45.15;34.40;;;7.60;99.90;;;;;;5040460;28;20049;-47
2021/12/14 05:18:11;;;;;;;47.28;35.47;;;7.60;99.90;;;;;;5038965;28;20159;-47
2021/12/14 05:20:42;;;;;;;47.58;35.63;;;7.70;99.90;;;;;;5041286;28;20092;-50
2021/12/14 05:23:08;;;;;;;50.78;37.45;;;7.70;99.90;;;;;;5044788;28;20438;-50
2021/12/14 05:25:38;;;;;;;48.80;36.40;;;7.70;99.90;;;;;;5042801;28;20056;-48
2021/12/14 05:28:09;;;;;;;52.22;37.70;;;7.60;99.90;;;;;;5037491;28;20095;-51
2021/12/14 05:30:46;;;;;;;50.13;36.60;;;7.60;99.90;;;;;;5039837;28;20092;-48
2021/12/14 05:33:17;;;;;;;52.88;38.80;;;7.60;99.90;;;;;;5041323;28;20088;-48
2021/12/14 05:35:46;;;;;;;53.00;38.45;;;7.60;99.90;;;;;;5041939;28;20049;-47
2021/12/14 05:38:17;;;;;;;51.85;39.33;;;7.70;99.90;;;;;;5045207;28;20061;-47
2021/12/14 05:43:31;;;;;;;58.10;39.97;;;7.60;99.90;;;;;;5045493;28;20640;-47
2021/12/14 05:46:06;;;;;;;58.45;39.05;;;7.60;99.90;;;;;;5046097;28;20060;-49
2021/12/14 05:48:34;;;;;;;57.28;40.10;;;7.60;99.90;;;;;;5045480;28;20587;-47
2021/12/14 05:51:09;;;;;;;61.72;41.35;;;7.60;99.90;;;;;;5043770;28;20086;-48
2021/12/14 05:53:46;;;;;;;61.90;41.33;;;7.60;99.90;;;;;;5046104;28;20458;-49
2021/12/14 05:56:21;;;;;;;63.92;43.28;;;7.60;99.90;;;;;;5044118;28;20056;-48
2021/12/14 05:58:48;;;;;;;61.10;41.85;;;7.60;99.90;;;;;;5043921;28;20063;-46
2021/12/14 06:01:17;;;;;;;59.20;40.22;;;7.60;99.90;;;;;;5044255;28;20599;-47
2021/12/14 06:03:53;;;;;;;54.63;39.45;;;7.60;99.90;;;;;;5061413;28;20092;-48
2021/12/14 06:06:30;;;;;;;57.95;38.78;;;7.60;99.90;;;;;;5046709;28;20061;-47
2021/12/14 06:09:05;;;;;;;59.75;40.80;;;7.60;99.90;;;;;;5046619;28;20143;-50
2021/12/14 06:11:31;;;;;;;55.45;39.65;;;7.60;99.90;;;;;;5046532;28;20055;-47
2021/12/14 06:13:57;;;;;;;60.80;41.60;;;7.60;99.90;;;;;;5065497;28;20048;-47
2021/12/14 06:16:31;;;;;;;56.42;39.05;;;7.60;99.90;;;;;;5042264;28;20053;-46
2021/12/14 06:19:19;;;;;;;52.42;38.38;;;7.60;99.90;;;;;;5058619;28;20044;-48
2021/12/14 06:21:47;;;;;;;62.00;41.58;;;7.60;99.90;;;;;;5056266;28;20274;-47
2021/12/14 06:24:13;;;;;;;57.20;41.22;;;7.70;99.90;;;;;;5047007;28;20135;-46
2021/12/14 06:26:47;;;;;;;60.40;42.78;;;7.70;99.90;;;;;;5047647;28;20077;-47
2021/12/14 06:29:20;;;;;;;59.42;41.00;;;7.70;99.90;;;;;;5043814;28;20099;-46
2021/12/14 06:31:46;;;;;;;65.17;42.83;;;7.70;99.90;;;;;;5060769;28;20123;-50
2021/12/14 06:34:28;;;;;;;59.88;40.28;;;7.70;99.90;;;;;;5047743;28;20084;-47
2021/12/14 06:40:26;;;;;;;58.88;41.50;;;7.70;99.90;;;;;;5061149;28;20083;-56
2021/12/14 06:43:13;;;;;;;62.30;41.90;;;7.70;99.90;;;;;;5039600;28;20067;-49
2021/12/14 06:45:44;;;;;;;62.92;41.35;;;7.70;99.90;;;;;;5065185;28;20066;-47
2021/12/14 06:48:21;;;;;;;64.43;43.30;;;7.70;99.90;;;;;;5045596;28;20471;-47
2021/12/14 06:51:04;;;;;;;66.85;43.15;;;7.70;99.90;;;;;;5065157;28;20045;-47
2021/12/14 06:53:31;;;;;;;66.57;42.50;;;7.70;99.90;;;;;;5046779;28;20171;-47
2021/12/14 06:55:59;;;;;;;69.55;42.42;;;7.70;99.90;;;;;;5045885;28;20163;-50
2021/12/14 06:58:53;;;;;;;59.50;42.38;;;7.70;99.90;;;;;;5045560;28;20079;-47
2021/12/14 07:01:27;;;;;;;63.28;42.67;;;7.70;99.90;;;;;;5056238;28;20088;-47
2021/12/14 07:03:59;;;;;;;70.85;46.95;;;7.70;99.90;;;;;;5041671;28;20056;-48
2021/12/14 07:06:30;;;;;;;66.00;43.63;;;7.70;99.90;;;;;;5044620;28;20125;-47
2021/12/14 07:09:05;;;;;;;66.10;44.55;;;7.80;99.90;;;;;;5064126;28;20052;-47
2021/12/14 07:11:31;;;;;;;65.50;42.70;;;7.70;99.90;;;;;;5045673;28;20087;-47
2021/12/14 07:13:57;;;;;;;69.20;43.08;;;7.80;99.90;;;;;;5063802;28;20453;-47
2021/12/14 07:16:32;;;;;;;76.90;44.45;;;7.70;99.90;;;;;;5062820;28;20123;-46
2021/12/14 07:19:04;;;;;;;69.75;45.35;;;7.70;99.90;;;;;;5063422;28;20048;-47
2021/12/14 07:21:50;;;;;;;66.28;43.20;;;7.70;99.90;;;;;;5045992;28;20380;-47
2021/12/14 07:24:22;;;;;;;59.65;40.42;;;7.70;99.90;;;;;;5044844;28;20574;-49
2021/12/14 07:27:12;;;;;;;66.22;44.33;;;7.70;99.90;;;;;;5045013;28;20087;-47
2021/12/14 07:29:38;;;;;;;63.03;41.83;;;7.80;99.90;;;;;;5052142;28;20520;-46
2021/12/14 07:32:04;;;;;;;65.68;43.70;;;7.80;99.90;;;;;;5045972;28;20072;-50
2021/12/14 07:34:30;;;;;;;63.78;43.17;;;7.80;99.90;;;;;;5045177;28;20131;-47
2021/12/14 07:36:56;;;;;;;62.47;41.95;;;7.80;99.90;;;;;;5063558;28;20469;-48
2021/12/14 07:39:22;;;;;;;70.53;43.92;;;7.80;99.90;;;;;;5063980;28;20040;-47
2021/12/14 07:41:51;;;;;;;66.18;43.13;;;7.80;99.90;;;;;;5065768;28;20052;-50
2021/12/14 07:44:18;;;;;;;64.03;41.50;;;7.80;99.90;;;;;;5047863;28;20052;-46
2021/12/14 07:47:00;;;;;;;64.78;40.58;;;7.80;99.90;;;;;;5065367;28;20064;-47
2021/12/14 07:49:45;;;;;;;67.53;42.88;;;7.80;99.90;;;;;;5047204;28;20049;-49
2021/12/14 07:52:16;;;;;;;62.67;41.03;;;7.90;99.90;;;;;;5049345;28;20805;-50
2021/12/14 07:55:19;;;;;;;68.25;41.47;;;7.90;99.90;;;;;;5067452;28;20045;-50
2021/12/14 07:57:47;;;;;;;51.97;33.00;;;7.90;99.90;;;;;;5041970;28;20095;-49
2021/12/14 08:00:25;;;;;;;67.55;44.53;;;7.90;99.90;;;;;;5046845;28;20182;-48
2021/12/14 08:02:56;;;;;;;67.50;42.85;;;7.90;99.90;;;;;;5042881;28;20091;-48
2021/12/14 08:05:28;;;;;;;68.72;44.38;;;7.90;99.90;;;;;;5043584;28;20138;-48
2021/12/14 08:07:56;;;;;;;62.45;43.65;;;7.90;99.90;;;;;;5042020;28;20049;-48
2021/12/14 08:10:30;;;;;;;63.03;42.22;;;8.00;99.90;;;;;;5036444;28;20057;-47
2021/12/14 08:13:13;;;;;;;63.63;42.53;;;8.00;99.90;;;;;;5037232;28;20565;-47
2021/12/14 08:15:45;;;;;;;62.33;40.65;;;8.00;99.90;;;;;;5039174;28;20351;-48
2021/12/14 08:18:28;;;;;;;66.88;43.20;;;8.00;99.90;;;;;;5030892;28;20140;-46
2021/12/14 08:21:08;;;;;;;66.93;44.95;;;8.00;99.90;;;;;;5042183;28;20045;-48
2021/12/14 08:23:35;;;;;;;65.57;42.28;;;8.00;99.90;;;;;;5042659;28;20080;-47
2021/12/14 08:26:12;;;;;;;65.28;42.88;;;7.90;99.90;;;;;;5040266;28;20567;-47
2021/12/14 08:28:50;;;;;;;65.28;42.95;;;8.00;99.90;;;;;;5041029;28;20048;-47
2021/12/14 08:31:17;;;;;;;67.03;42.17;;;8.00;99.90;;;;;;5039399;28;20394;-46
2021/12/14 08:33:43;;;;;;;67.78;42.40;;;8.00;99.90;;;;;;5040205;28;20435;-48
2021/12/14 08:36:12;;;;;;;66.78;41.65;;;8.00;99.90;;;;;;5039873;28;20044;-48
2021/12/14 08:38:38;;;;;;;67.30;41.88;;;8.00;99.90;;;;;;5039152;28;20475;-48
2021/12/14 08:41:16;;;;;;;64.72;42.50;;;8.00;99.90;;;;;;5040429;28;20063;-50
2021/12/14 08:43:48;;;;;;;63.20;41.03;;;8.00;99.90;;;;;;5037653;28;20450;-47
2021/12/14 08:46:29;;;;;;;61.55;41.30;;;8.00;99.90;;;;;;5043001;28;20645;-47
2021/12/14 08:49:01;;;;;;;62.55;42.83;;;8.00;99.90;;;;;;5038755;28;20060;-47
2021/12/14 08:51:31;;;;;;;59.78;41.10;;;8.10;99.90;;;;;;5045913;28;20122;-49
2021/12/14 08:54:17;;;;;;;67.68;40.97;;;8.00;99.90;;;;;;5043807;28;20056;-50
2021/12/14 08:56:48;;;;;;;67.55;44.05;;;8.10;99.90;;;;;;5040462;28;20118;-49
2021/12/14 08:59:23;;;;;;;65.55;41.47;;;8.10;99.90;;;;;;5045931;28;20056;-47
2021/12/14 09:01:50;;;;;;;66.70;42.65;;;8.10;99.90;;;;;;5045804;28;20041;-46
2021/12/14 09:04:33;;;;;;;75.32;46.00;;;8.10;99.90;;;;;;5048536;28;20463;-47
2021/12/14 09:07:11;;;;;;;72.13;43.75;;;8.00;99.90;;;;;;5053537;28;20051;-49
2021/12/14 09:09:39;;;;;;;70.20;43.35;;;8.00;99.90;;;;;;5062897;28;20067;-49
2021/12/14 09:12:08;;;;;;;69.00;44.28;;;8.10;99.90;;;;;;5062028;28;20052;-50
2021/12/14 09:14:34;;;;;;;74.97;46.33;;;8.00;99.90;;;;;;5043597;28;20051;-47
2021/12/14 09:17:02;;;;;;;80.57;48.70;;;8.10;99.90;;;;;;5063062;28;20040;-47
2021/12/14 09:19:37;;;;;;;74.68;45.75;;;8.00;99.90;;;;;;5063377;28;20054;-46
2021/12/14 09:22:09;;;;;;;75.10;45.25;;;8.00;99.90;;;;;;5041046;28;20396;-47
2021/12/14 09:24:35;;;;;;;75.25;45.30;;;8.10;99.90;;;;;;5034138;28;20056;-49
2021/12/14 09:27:06;;;;;;;69.30;41.67;;;8.10;99.90;;;;;;5032688;28;20044;-50
2021/12/14 09:29:33;;;;;;;72.18;43.38;;;8.10;99.90;;;;;;5054881;28;20127;-48
2021/12/14 09:32:03;;;;;;;74.85;43.33;;;8.10;99.90;;;;;;5053385;28;20235;-47
2021/12/14 09:34:31;;;;;;;81.30;45.28;;;8.10;99.90;;;;;;5019485;28;20064;-47
2021/12/14 09:36:58;;;;;;;79.72;45.20;;;8.10;99.90;;;;;;5037133;28;20403;-50
2021/12/14 09:39:29;;;;;;;75.60;43.92;;;8.10;99.90;;;;;;5054632;28;20045;-47
2021/12/14 09:41:58;;;;;;;78.38;42.67;;;8.10;99.90;;;;;;5052911;28;20045;-47
2021/12/14 09:44:28;;;;;;;75.60;43.53;;;8.10;99.90;;;;;;5032967;28;20052;-47
2021/12/14 09:47:04;;;;;;;77.10;43.38;;;8.20;99.90;;;;;;5038908;28;20171;-47
2021/12/14 09:49:31;;;;;;;75.40;43.35;;;8.20;99.90;;;;;;5049621;28;20056;-46
2021/12/14 09:52:06;;;;;;;79.28;44.20;;;8.20;99.90;;;;;;5048392;28;20060;-48
2021/12/14 09:54:32;;;;;;;84.07;43.78;;;8.20;99.90;;;;;;5027675;28;20056;-47
2021/12/14 09:57:13;;;;;;;74.65;40.15;;;8.20;99.90;;;;;;5043735;28;20470;-47
2021/12/14 09:59:40;;;;;;;86.82;44.67;;;8.20;99.90;;;;;;5033684;28;20517;-47
2021/12/14 10:02:15;;;;;;;70.60;41.85;;;8.20;99.90;;;;;;5033997;28;20052;-47
2021/12/14 10:04:49;;;;;;;87.65;51.22;;;8.30;99.90;;;;;;5051709;28;20057;-49
2021/12/14 10:07:16;;;;;;;79.40;42.58;;;8.20;99.90;;;;;;5037601;28;20048;-47
2021/12/14 10:09:47;;;;;;;84.75;47.33;;;8.20;99.90;;;;;;5033472;28;20041;-47
2021/12/14 10:15:07;;;;;;;80.18;42.95;;;8.30;99.90;;;;;;5056708;28;20063;-49
2021/12/14 10:17:34;;;;;;;68.82;39.47;;;8.30;99.90;;;;;;5059176;28;20080;-46
2021/12/14 10:20:00;;;;;;;74.90;40.55;;;8.30;99.90;;;;;;5059212;28;20048;-49
2021/12/14 10:22:31;;;;;;;77.70;41.17;;;8.30;99.90;;;;;;5059084;28;20114;-47
2021/12/14 10:25:04;;;;;;;72.32;39.92;;;8.30;99.90;;;;;;5064351;28;20313;-48
2021/12/14 10:27:33;;;;;;;68.63;37.45;;;8.30;99.90;;;;;;5063725;28;20040;-49
2021/12/14 10:30:01;;;;;;;71.80;38.83;;;8.30;99.90;;;;;;5064163;28;20063;-47
2021/12/14 10:32:31;;;;;;;70.95;38.80;;;8.30;99.90;;;;;;5064173;28;20128;-49
2021/12/14 10:35:06;;;;;;;68.70;38.55;;;8.30;99.90;;;;;;5046509;28;20247;-49
2021/12/14 10:38:50;;;;;;;64.75;35.72;;;8.30;99.90;;;;;;5043966;28;20663;-48
2021/12/14 10:43:28;;;;;;;64.32;34.67;;;8.40;99.90;;;;;;5001166;28;20073;-50
2021/12/14 10:45:55;;;;;;;65.72;34.63;;;8.40;99.90;;;;;;5001087;28;20065;-47
2021/12/14 10:48:25;;;;;;;62.42;33.72;;;8.40;99.90;;;;;;4998971;28;20064;-48
2021/12/14 10:50:54;;;;;;;68.57;36.35;;;8.40;99.90;;;;;;5001240;28;20682;-49
2021/12/14 10:53:21;;;;;;;69.60;36.33;;;8.50;99.90;;;;;;4984539;28;20154;-48
2021/12/14 10:55:58;;;;;;;72.65;35.75;;;8.50;99.90;;;;;;4967816;28;20062;-47
2021/12/14 10:58:25;;;;;;;64.22;33.70;;;8.50;99.90;;;;;;4981713;28;20209;-47
2021/12/14 11:00:54;;;;;;;70.47;34.25;;;8.50;99.90;;;;;;5000613;28;20658;-47
2021/12/14 11:03:26;;;;;;;75.75;34.70;;;8.50;99.90;;;;;;5000400;28;20054;-47
2021/12/14 11:05:56;;;;;;;70.65;33.70;;;8.50;99.90;;;;;;5001861;28;20567;-50
2021/12/14 11:11:33;;;;;;;76.70;33.50;;;8.50;99.90;;;;;;4998416;28;20125;-48
2021/12/14 11:14:02;;;;;;;65.22;32.33;;;8.60;99.90;;;;;;4990810;28;20425;-47
2021/12/14 11:18:08;;;;;;;69.05;34.33;;;8.60;99.90;;;;;;4993786;28;20066;-47
2021/12/14 11:19:18;;;;;;;67.63;33.15;;;8.60;99.90;;;;;;4991699;28;20072;-51
2021/12/14 11:21:44;;;;;;;64.72;32.58;;;8.70;99.90;;;;;;4939424;28;20054;-49
2021/12/14 11:24:10;;;;;;;71.93;36.33;;;8.60;99.90;;;;;;4961567;28;20121;-50
2021/12/14 11:26:37;;;;;;;79.03;37.10;;;8.70;99.90;;;;;;4962501;28;20050;-47
2021/12/14 11:29:09;;;;;;;71.97;33.80;;;8.70;99.90;;;;;;4962033;28;20061;-49
2021/12/14 11:31:48;;;;;;;68.45;34.35;;;8.70;99.90;;;;;;4973337;28;20062;-51
2021/12/14 11:34:29;;;;;;;72.55;34.03;;;8.70;99.90;;;;;;4960145;28;20057;-50
2021/12/14 11:37:02;;;;;;;76.28;37.60;;;8.70;99.90;;;;;;4966684;28;20602;-49
2021/12/14 11:39:34;;;;;;;73.40;36.28;;;8.70;99.90;;;;;;4962248;28;20124;-50
2021/12/14 11:42:05;;;;;;;76.40;34.47;;;8.70;99.90;;;;;;4950192;28;20054;-47
2021/12/14 11:44:34;;;;;;;81.10;37.55;;;8.70;99.90;;;;;;4961874;28;20137;-49
2021/12/14 11:47:41;;;;;;;61.30;31.25;;;8.70;99.90;;;;;;4947159;28;20139;-47
2021/12/14 11:50:23;;;;;;;73.68;34.30;;;8.70;99.90;;;;;;5024792;28;20053;-47
2021/12/14 11:53:00;;;;;;;62.13;32.72;;;8.70;99.90;;;;;;5023468;28;20114;-47
2021/12/14 11:55:42;;;;;;;71.85;34.08;;;8.80;99.90;;;;;;5030817;28;20056;-49
2021/12/14 11:58:16;;;;;;;70.45;34.45;;;8.80;99.90;;;;;;5042228;28;20132;-50
2021/12/14 12:00:51;;;;;;;68.95;32.95;;;8.80;99.90;;;;;;5024170;28;20523;-47
2021/12/14 12:03:25;;;;;;;73.45;33.83;;;8.80;99.90;;;;;;5028013;28;20045;-49
2021/12/14 12:06:10;;;;;;;70.15;34.42;;;8.80;99.90;;;;;;5052167;28;20510;-47
2021/12/14 12:11:40;;;;;;;76.05;36.15;;;8.90;99.90;;;;;;5061661;28;20568;-49
2021/12/14 12:14:29;;;;;;;70.07;33.58;;;8.90;99.90;;;;;;5062605;28;20103;-47
2021/12/14 12:17:27;;;;;;;89.40;46.72;;;8.90;99.90;;;;;;5052179;28;20056;-50
2021/12/14 12:20:00;;;;;;;85.60;54.33;;;8.80;99.90;;;;;;5034301;28;20052;-47
2021/12/14 12:22:49;;;;;;;80.57;49.50;;;8.80;99.90;;;;;;5042634;28;20045;-47
2021/12/14 12:26:01;;;;;;;90.55;46.90;;;8.80;99.90;;;;;;5042104;28;20330;-48
2021/12/14 12:28:38;;;;;;;68.90;40.47;;;8.80;99.90;;;;;;5043401;28;20044;-47
2021/12/14 12:31:19;;;;;;;66.88;31.13;;;8.90;99.90;;;;;;5059398;28;20056;-48
2021/12/14 12:33:49;;;;;;;66.65;33.15;;;8.80;99.90;;;;;;5062415;28;20044;-48
2021/12/14 12:36:17;;;;;;;65.88;35.35;;;8.90;99.90;;;;;;5058967;28;20088;-50
2021/12/14 12:38:50;;;;;;;66.03;35.17;;;8.90;99.90;;;;;;5043121;28;20137;-48
2021/12/14 12:41:26;;;;;;;66.37;35.27;;;8.90;99.90;;;;;;5062691;28;20044;-48
2021/12/14 12:43:51;;;;;;;55.95;31.38;;;8.90;99.90;;;;;;5062101;28;20320;-48
2021/12/14 12:46:29;;;;;;;72.90;35.08;;;8.90;99.90;;;;;;5059716;28;20041;-49
2021/12/14 12:49:17;;;;;;;65.15;33.55;;;9.00;99.90;;;;;;5044066;28;20048;-50
2021/12/14 12:51:49;;;;;;;57.08;30.23;;;9.00;99.90;;;;;;5058339;28;20075;-50
2021/12/14 12:54:26;;;;;;;58.40;31.25;;;9.00;99.90;;;;;;5058904;28;20059;-49
2021/12/14 12:57:11;;;;;;;63.40;30.52;;;9.00;99.90;;;;;;5060697;28;20048;-47
2021/12/14 13:00:07;;;;;;;51.25;29.23;;;9.10;99.90;;;;;;5060910;28;20119;-48
2021/12/14 13:02:35;;;;;;;60.50;30.85;;;9.00;99.90;;;;;;5036766;28;20091;-46
2021/12/14 13:05:30;;;;;;;56.97;30.25;;;9.10;99.90;;;;;;5057487;28;20049;-48
2021/12/14 13:08:29;;;;;;;45.55;27.73;;;9.10;99.90;;;;;;5041055;28;20648;-47
2021/12/14 13:11:00;;;;;;;46.85;27.25;;;9.10;99.90;;;;;;5060941;28;20170;-47
2021/12/14 13:13:42;;;;;;;50.95;28.42;;;9.10;99.90;;;;;;5060704;28;20102;-50
2021/12/14 13:16:12;;;;;;;45.80;25.63;;;9.10;99.90;;;;;;5040758;28;20074;-47
2021/12/14 13:18:52;;;;;;;42.08;25.70;;;9.10;99.90;;;;;;5042214;28;20382;-47
2021/12/14 13:21:24;;;;;;;47.85;27.45;;;9.20;99.90;;;;;;5060257;28;20131;-48
2021/12/14 13:24:01;;;;;;;43.03;25.15;;;9.10;99.90;;;;;;5042223;28;20407;-50
2021/12/14 13:27:00;;;;;;;41.88;26.48;;;9.10;99.90;;;;;;5042193;28;20063;-47
2021/12/14 13:29:34;;;;;;;41.90;24.48;;;9.20;99.90;;;;;;4942765;28;20150;-48
2021/12/14 13:31:59;;;;;;;40.08;23.20;;;9.10;99.90;;;;;;4959810;28;20062;-48
2021/12/14 13:34:34;;;;;;;49.30;24.77;;;9.10;99.90;;;;;;4959374;28;20413;-48
2021/12/14 13:37:00;;;;;;;38.97;23.73;;;9.10;99.90;;;;;;4958239;28;20415;-47
2021/12/14 13:39:27;;;;;;;40.95;23.02;;;9.10;99.90;;;;;;4958008;28;20090;-47
2021/12/14 13:41:56;;;;;;;36.30;23.08;;;9.10;99.90;;;;;;4940683;28;20039;-48
2021/12/14 13:44:22;;;;;;;44.35;22.33;;;9.10;99.90;;;;;;4932829;28;20055;-48
2021/12/14 13:46:48;;;;;;;36.47;22.58;;;9.10;99.90;;;;;;4942131;28;20171;-46
2021/12/14 13:49:14;;;;;;;34.33;21.33;;;9.10;99.90;;;;;;4955064;28;20112;-47
2021/12/14 13:51:40;;;;;;;31.55;19.80;;;9.10;99.90;;;;;;4944027;28;20142;-47
2021/12/14 13:54:06;;;;;;;28.38;19.08;;;9.20;99.90;;;;;;4955632;28;20057;-50